Bighorn, Montana
Current Conditions -  °F | °C
As of 9:53 AM on Tuesday 21 Oct 2014 (Local Time) from KBIL Reporting Station
Few Clouds Few Clouds  
Wind Chill: 14°   Ceiling: Unl
Heat Index: 14°   Visibility: 10mi
Dew Point: -1°   Wind: 13mph
Humidity: 37%   Direction: 230°SW
Pressure: 29.72"   Gusts: NA
Location:  46.16°N, 107.45°W
Report Text: KBIL 211553Z 23011KT 10SM FEW075 FEW160 14/M01 A2972 RMK AO2 SLP046 VIRGA NW T01391006
Loading
Personal Weather Stations






























Interactive Weather Map
Tropical Storm Tracking
New forecast layout! Learn more

10-Day Weather Forecast

Advertisements
Track Severe Weather on mobile